createdAt,value
2022-09-28T00:01:06.857Z,98732.78
2022-09-28T00:03:34.048Z,98739.56
2022-09-28T00:06:09.183Z,98729.63
2022-09-28T00:08:36.206Z,98733.56
2022-09-28T00:11:04.354Z,98726.44
2022-09-28T00:13:32.910Z,98724.81
2022-09-28T00:16:01.335Z,98719.25
2022-09-28T00:18:28.495Z,98725.97
2022-09-28T00:21:12.307Z,98728.75
2022-09-28T00:24:00.165Z,98722.44
2022-09-28T00:26:28.767Z,98727.16
2022-09-28T00:29:00.456Z,98731.13
2022-09-28T00:31:33.401Z,98731.13
2022-09-28T00:34:01.418Z,98736.25
2022-09-28T00:36:30.486Z,98737.06
2022-09-28T00:38:58.241Z,98737.41
2022-09-28T00:41:29.613Z,98735.81
2022-09-28T00:44:27.122Z,98730.28
2022-09-28T00:59:00.088Z,98739.34
2022-09-28T01:01:28.316Z,98738.91
2022-09-28T01:03:55.176Z,98734.16
2022-09-28T01:06:24.579Z,98733.34
2022-09-28T01:08:52.751Z,98726.22
2022-09-28T01:11:20.304Z,98730.97
2022-09-28T01:13:50.490Z,98727.38
2022-09-28T01:16:35.555Z,98736.50
2022-09-28T01:19:30.081Z,98731.31
2022-09-28T01:22:41.094Z,98734.09
2022-09-28T01:25:19.734Z,98734.84
2022-09-28T01:27:59.854Z,98738.06
2022-09-28T01:30:26.716Z,98732.50
2022-09-28T01:33:21.019Z,98726.16
2022-09-28T01:36:08.755Z,98727.69
2022-09-28T01:38:44.838Z,98734.84
2022-09-28T01:41:12.748Z,98727.69
2022-09-28T01:43:42.748Z,98734.41
2022-09-28T01:46:33.744Z,98738.38
2022-09-28T01:49:11.052Z,98737.19
2022-09-28T01:51:47.428Z,98732.03
2022-09-28T01:54:20.084Z,98725.66
2022-09-28T01:57:09.295Z,98734.81
2022-09-28T01:59:41.984Z,98726.81
2022-09-28T02:02:18.755Z,98716.53
2022-09-28T02:04:48.266Z,98728.38
2022-09-28T02:07:18.588Z,98726.41
2022-09-28T02:09:58.470Z,98722.00
2022-09-28T02:12:37.291Z,98722.81
2022-09-28T02:15:17.954Z,98715.66
2022-09-28T02:17:46.235Z,98724.00
2022-09-28T02:20:16.009Z,98719.63
2022-09-28T02:22:51.706Z,98728.31
2022-09-28T02:25:28.353Z,98726.34
2022-09-28T02:28:02.190Z,98723.94
2022-09-28T02:30:33.870Z,98721.19
2022-09-28T02:33:11.556Z,98721.94
2022-09-28T02:35:40.088Z,98719.56
2022-09-28T02:38:07.171Z,98727.88
2022-09-28T02:40:37.895Z,98728.28
2022-09-28T02:43:41.934Z,98737.75
2022-09-28T02:46:22.856Z,98734.59
2022-09-28T02:49:21.496Z,98726.66
2022-09-28T02:52:01.446Z,98729.38
2022-09-28T02:55:06.760Z,98732.94
2022-09-28T02:58:06.954Z,98738.50
2022-09-28T03:00:45.281Z,98743.25
2022-09-28T03:03:25.840Z,98742.44
2022-09-28T03:06:15.979Z,98746.03
2022-09-28T03:09:22.473Z,98743.19
2022-09-28T03:11:53.770Z,98742.81
2022-09-28T03:14:20.788Z,98749.53
2022-09-28T03:16:56.905Z,98744.00
2022-09-28T03:19:32.229Z,98740.78
2022-09-28T03:22:00.265Z,98747.97
2022-09-28T03:24:26.965Z,98747.97
2022-09-28T03:26:53.532Z,98748.69
2022-09-28T03:29:20.644Z,98751.91
2022-09-28T03:31:52.865Z,98751.81
2022-09-28T03:34:19.841Z,98748.25
2022-09-28T03:36:46.553Z,98755.81
2022-09-28T03:39:13.251Z,98762.91
2022-09-28T03:41:40.050Z,98764.09
2022-09-28T03:44:06.635Z,98761.69
2022-09-28T03:46:34.006Z,98757.31
2022-09-28T03:49:05.680Z,98746.66
2022-09-28T03:51:32.447Z,98749.78
2022-09-28T03:53:59.021Z,98750.59
2022-09-28T03:56:26.583Z,98746.19
2022-09-28T03:58:53.298Z,98751.75
2022-09-28T04:01:20.126Z,98741.41
2022-09-28T04:03:48.155Z,98743.00
2022-09-28T04:06:15.503Z,98739.00
2022-09-28T04:08:43.375Z,98733.53
2022-09-28T04:11:10.948Z,98734.25
2022-09-28T04:13:37.699Z,98730.25
2022-09-28T04:16:06.947Z,98731.03
2022-09-28T04:18:35.327Z,98730.25
2022-09-28T04:21:13.583Z,98742.13
2022-09-28T04:23:48.750Z,98738.94
2022-09-28T04:26:21.446Z,98735.00
2022-09-28T04:29:07.512Z,98742.94
2022-09-28T04:31:51.921Z,98745.28
2022-09-28T04:34:21.908Z,98736.59
2022-09-28T04:36:49.982Z,98742.94
2022-09-28T04:39:19.211Z,98745.69
2022-09-28T04:41:49.501Z,98749.59
2022-09-28T04:44:16.489Z,98754.34
2022-09-28T04:46:46.028Z,98754.72
2022-09-28T04:49:38.828Z,98753.13
2022-09-28T04:52:08.652Z,98755.50
2022-09-28T04:54:35.663Z,98758.66
2022-09-28T04:57:03.757Z,98763.06
2022-09-28T04:59:30.576Z,98769.03
2022-09-28T05:01:57.467Z,98764.41
2022-09-28T05:04:59.679Z,98764.34
2022-09-28T05:07:47.860Z,98764.78
2022-09-28T05:10:14.809Z,98778.72
2022-09-28T05:12:41.507Z,98770.66
2022-09-28T05:15:10.495Z,98771.38
2022-09-28T05:17:37.156Z,98768.16
2022-09-28T05:20:19.984Z,98760.22
2022-09-28T05:22:46.532Z,98773.28
2022-09-28T05:25:13.563Z,98769.28
2022-09-28T05:28:03.292Z,98768.88
2022-09-28T05:30:49.926Z,98762.19
2022-09-28T05:33:45.417Z,98764.16
2022-09-28T05:36:13.461Z,98768.84
2022-09-28T05:38:42.048Z,98763.66
2022-09-28T05:41:08.927Z,98763.28
2022-09-28T05:43:36.281Z,98762.50
2022-09-28T05:46:05.995Z,98756.13
2022-09-28T05:48:35.200Z,98753.72
2022-09-28T05:51:02.328Z,98763.22
2022-09-28T05:53:29.727Z,98763.22
2022-09-28T05:55:59.357Z,98768.31
2022-09-28T05:58:26.255Z,98772.63
2022-09-28T06:00:57.892Z,98769.50
2022-09-28T06:03:25.222Z,98768.31
2022-09-28T06:05:51.832Z,98767.88
2022-09-28T06:08:19.234Z,98767.88
2022-09-28T06:10:52.279Z,98771.84
2022-09-28T06:13:19.936Z,98768.63
2022-09-28T06:15:46.503Z,98776.59
2022-09-28T06:18:15.056Z,98785.25
2022-09-28T06:20:59.920Z,98786.88
2022-09-28T06:23:42.751Z,98792.84
2022-09-28T06:26:12.689Z,98796.22
2022-09-28T06:28:39.422Z,98797.16
2022-09-28T06:31:06.306Z,98795.63
2022-09-28T06:33:42.058Z,98797.91
2022-09-28T06:36:09.898Z,98806.66
2022-09-28T06:38:38.106Z,98806.72
2022-09-28T06:41:04.882Z,98797.91
2022-09-28T06:43:34.618Z,98810.84
2022-09-28T06:46:14.388Z,98815.41
2022-09-28T06:48:46.937Z,98815.91
2022-09-28T06:51:18.495Z,98816.84
2022-09-28T06:54:08.177Z,98812.06
2022-09-28T06:56:49.129Z,98818.44
2022-09-28T06:59:15.883Z,98825.28
2022-09-28T07:01:42.545Z,98823.50
2022-09-28T07:04:19.372Z,98823.47
2022-09-28T07:07:15.144Z,98827.84
2022-09-28T07:13:45.071Z,98838.69
2022-09-28T07:16:07.731Z,98837.06
2022-09-28T07:18:35.603Z,98840.59
2022-09-28T07:21:04.192Z,98842.13
2022-09-28T07:23:31.989Z,98852.44
2022-09-28T07:26:26.057Z,98844.41
2022-09-28T07:31:53.805Z,98852.38
2022-09-28T07:34:44.486Z,98841.03
2022-09-28T07:37:31.678Z,98841.88
2022-09-28T07:40:16.876Z,98859.66
2022-09-28T07:42:43.544Z,98855.22
2022-09-28T07:45:11.565Z,98856.41
2022-09-28T07:47:38.148Z,98859.53
2022-09-28T07:50:36.770Z,98865.84
2022-09-28T07:53:13.657Z,98868.09
2022-09-28T07:56:02.323Z,98874.41
2022-09-28T07:58:38.570Z,98875.88
2022-09-28T08:04:15.750Z,98878.94
2022-09-28T08:06:45.120Z,98883.34
2022-09-28T08:15:19.756Z,98887.19
2022-09-28T08:17:59.098Z,98882.63
2022-09-28T08:20:51.333Z,98896.81
2022-09-28T08:23:18.821Z,98892.81
2022-09-28T08:25:49.585Z,98895.13
2022-09-28T08:28:17.769Z,98895.00
2022-09-28T08:30:49.005Z,98888.56
2022-09-28T08:33:38.509Z,98903.19
2022-09-28T08:36:24.205Z,98906.41
2022-09-28T08:39:03.123Z,98905.97
2022-09-28T08:42:10.812Z,98905.16
2022-09-28T08:45:09.425Z,98905.09
2022-09-28T08:48:28.581Z,98906.28
2022-09-28T08:51:34.431Z,98908.31
2022-09-28T08:54:40.021Z,98909.94
2022-09-28T08:57:13.496Z,98908.69
2022-09-28T08:59:49.185Z,98912.25
2022-09-28T09:02:27.435Z,98909.03
2022-09-28T09:05:07.502Z,98910.94
2022-09-28T09:08:19.859Z,98912.84
2022-09-28T09:10:53.849Z,98913.28
2022-09-28T09:14:09.404Z,98914.47
2022-09-28T09:17:05.652Z,98914.00
2022-09-28T09:20:17.635Z,98915.19
2022-09-28T09:23:00.899Z,98923.97
2022-09-28T09:25:40.106Z,98925.50
2022-09-28T09:28:29.034Z,98920.75
2022-09-28T09:54:56.267Z,98925.41
2022-09-28T09:57:42.091Z,98923.81
2022-09-28T10:00:27.985Z,98922.22
2022-09-28T10:03:07.018Z,98919.06
2022-09-28T10:05:39.584Z,98934.47
2022-09-28T10:08:09.342Z,98925.00
2022-09-28T10:10:50.613Z,98921.41
2022-09-28T10:13:19.585Z,98918.25
2022-09-28T10:15:47.900Z,98912.69
2022-09-28T10:18:21.732Z,98913.50
2022-09-28T10:21:11.465Z,98912.69
2022-09-28T10:24:02.673Z,98918.25
2022-09-28T10:26:40.461Z,98917.09
2022-09-28T10:29:16.369Z,98918.25
2022-09-28T10:31:51.035Z,98919.88
2022-09-28T10:34:29.164Z,98914.31
2022-09-28T10:37:11.004Z,98914.31
2022-09-28T10:39:58.313Z,98911.13
2022-09-28T10:42:31.999Z,98909.56
2022-09-28T10:45:17.498Z,98916.47
2022-09-28T10:48:03.341Z,98922.88
2022-09-28T10:50:53.888Z,98924.19
2022-09-28T10:53:21.161Z,98924.78
2022-09-28T10:56:21.233Z,98926.50
2022-09-28T10:58:52.108Z,98919.16
2022-09-28T11:01:39.248Z,98918.75
2022-09-28T11:04:25.916Z,98921.97
2022-09-28T11:09:39.015Z,98923.41
2022-09-28T11:12:16.641Z,98932.53
2022-09-28T11:14:44.308Z,98923.50
2022-09-28T11:17:28.715Z,98927.16
2022-09-28T11:20:01.342Z,98930.34
2022-09-28T11:22:34.083Z,98930.34
2022-09-28T11:25:17.813Z,98922.88
2022-09-28T11:27:52.855Z,98919.31
2022-09-28T11:30:59.216Z,98930.84
2022-09-28T11:33:46.213Z,98916.91
2022-09-28T11:36:52.768Z,98929.59
2022-09-28T11:39:33.935Z,98923.63
2022-09-28T11:42:16.218Z,98925.66
2022-09-28T11:45:02.548Z,98932.72
2022-09-28T11:47:29.461Z,98927.00
2022-09-28T11:50:13.819Z,98921.78
2022-09-28T11:53:10.800Z,98929.38
2022-09-28T12:05:02.516Z,98924.88
2022-09-28T12:07:40.503Z,98920.88
2022-09-28T12:13:50.037Z,98921.97
2022-09-28T12:19:30.906Z,98926.03
2022-09-28T12:22:04.186Z,98928.72
2022-09-28T12:24:44.542Z,98926.19
2022-09-28T12:27:22.271Z,98925.44
2022-09-28T12:30:04.137Z,98922.97
2022-09-28T12:32:39.384Z,98917.44
2022-09-28T12:35:30.741Z,98921.47
2022-09-28T12:38:00.027Z,98915.97
2022-09-28T12:40:37.638Z,98919.25
2022-09-28T12:43:40.675Z,98914.53
2022-09-28T12:46:31.010Z,98913.34
2022-09-28T12:52:27.332Z,98912.00
2022-09-28T12:55:18.487Z,98908.06
2022-09-28T12:57:59.604Z,98907.78
2022-09-28T13:00:33.045Z,98903.78
2022-09-28T13:03:31.765Z,98903.00
2022-09-28T13:06:18.792Z,98894.25
2022-09-28T13:08:45.345Z,98907.38
2022-09-28T13:11:34.179Z,98897.97
2022-09-28T13:14:25.274Z,98892.84
2022-09-28T13:17:03.780Z,98891.19
2022-09-28T13:19:54.794Z,98891.94
2022-09-28T13:22:44.192Z,98880.88
2022-09-28T13:25:20.761Z,98896.81
2022-09-28T13:28:06.900Z,98903.00
2022-09-28T13:30:36.449Z,98918.09
2022-09-28T13:33:05.434Z,98933.84
2022-09-28T13:35:33.345Z,98938.50
2022-09-28T13:38:18.313Z,98941.22
2022-09-28T13:41:03.522Z,98938.06
2022-09-28T13:44:05.189Z,98942.34
2022-09-28T13:46:34.549Z,98935.63
2022-09-28T13:49:39.528Z,98937.94
2022-09-28T13:52:12.569Z,98936.28
2022-09-28T13:55:02.827Z,98942.91
2022-09-28T13:57:46.304Z,98937.28
2022-09-28T14:00:22.156Z,98940.97
2022-09-28T14:03:01.486Z,98935.00
2022-09-28T14:05:48.483Z,98945.38
2022-09-28T14:08:33.578Z,98944.28
2022-09-28T14:11:25.351Z,98940.66
2022-09-28T14:14:00.567Z,98947.06
2022-09-28T14:16:32.453Z,98939.91
2022-09-28T14:19:12.345Z,98934.88
2022-09-28T14:22:15.004Z,98934.41
2022-09-28T14:25:02.918Z,98935.19
2022-09-28T14:27:51.585Z,98932.53
2022-09-28T14:30:25.664Z,98930.16
2022-09-28T14:32:58.355Z,98931.34
2022-09-28T14:35:41.186Z,98933.69
2022-09-28T14:38:36.697Z,98934.44
2022-09-28T14:41:15.210Z,98931.34
2022-09-28T14:43:44.730Z,98932.53
2022-09-28T14:46:11.775Z,98939.78
2022-09-28T14:48:47.907Z,98944.16
2022-09-28T14:51:26.737Z,98949.47
2022-09-28T14:53:56.591Z,98955.44
2022-09-28T14:56:25.433Z,98953.88
2022-09-28T14:58:57.913Z,98960.13
2022-09-28T15:01:26.419Z,98949.19
2022-09-28T15:03:59.468Z,98965.44
2022-09-28T15:06:28.984Z,98952.25
2022-09-28T15:08:55.702Z,98956.91
2022-09-28T15:11:25.093Z,98959.84
2022-09-28T15:14:06.425Z,98963.56
2022-09-28T15:16:33.603Z,98962.00
2022-09-28T15:19:18.589Z,98967.91
2022-09-28T15:21:47.678Z,98960.91
2022-09-28T15:24:31.928Z,98964.41
2022-09-28T15:27:04.164Z,98963.91
2022-09-28T15:29:34.089Z,98965.78
2022-09-28T15:34:58.478Z,98959.38
2022-09-28T15:37:32.942Z,98952.94
2022-09-28T15:40:00.993Z,98963.66
2022-09-28T15:42:27.655Z,98962.44
2022-09-28T15:45:26.666Z,98958.44
2022-09-28T15:48:17.651Z,98950.50
2022-09-28T15:51:00.122Z,98956.78
2022-09-28T15:53:27.169Z,98960.75
2022-09-28T15:56:03.557Z,98960.88
2022-09-28T15:58:30.095Z,98963.56
2022-09-28T16:01:20.204Z,98974.00
2022-09-28T16:03:46.886Z,98970.50
2022-09-28T16:06:14.252Z,98969.00
2022-09-28T16:08:49.017Z,98975.75
2022-09-28T16:11:36.429Z,98978.84
2022-09-28T16:14:17.371Z,98975.91
2022-09-28T16:16:52.297Z,98983.88
2022-09-28T16:19:36.162Z,98983.03
2022-09-28T16:22:07.535Z,98986.97
2022-09-28T16:24:37.435Z,98987.84
2022-09-28T16:27:05.590Z,98989.50
2022-09-28T16:29:41.218Z,98990.31
2022-09-28T16:32:26.205Z,98985.53
2022-09-28T16:35:26.807Z,98987.66
2022-09-28T16:38:11.858Z,98986.41
2022-09-28T16:40:48.000Z,98993.09
2022-09-28T16:43:32.617Z,98993.09
2022-09-28T16:46:01.869Z,98996.03
2022-09-28T16:48:30.368Z,98989.66
2022-09-28T16:50:57.996Z,99002.81
2022-09-28T16:53:44.028Z,99004.03
2022-09-28T16:56:12.696Z,99006.38
2022-09-28T16:58:39.376Z,99002.41
2022-09-28T17:01:09.861Z,99003.22
2022-09-28T17:03:36.733Z,98996.09
2022-09-28T17:06:06.263Z,99002.47
2022-09-28T17:08:35.611Z,99001.38
2022-09-28T17:11:14.981Z,99008.41
2022-09-28T17:13:45.143Z,99009.88
2022-09-28T17:16:32.258Z,99012.22
2022-09-28T17:19:19.969Z,99040.78
2022-09-28T17:21:47.127Z,99042.31
2022-09-28T17:24:13.780Z,99039.13
2022-09-28T17:26:43.733Z,99032.41
2022-09-28T17:29:14.508Z,99031.94
2022-09-28T17:31:45.640Z,99026.22
2022-09-28T17:34:15.186Z,99022.19
2022-09-28T17:36:43.359Z,99014.22
2022-09-28T17:39:15.172Z,99012.63
2022-09-28T17:41:41.908Z,99008.22
2022-09-28T17:44:09.019Z,99013.38
2022-09-28T17:46:45.889Z,99014.53
2022-09-28T17:49:13.157Z,99011.75
2022-09-28T17:51:39.739Z,99004.97
2022-09-28T17:54:08.153Z,99001.38
2022-09-28T17:56:36.116Z,99010.03
2022-09-28T17:59:05.702Z,99010.78
2022-09-28T18:01:39.174Z,99016.34
2022-09-28T18:04:08.195Z,99015.47
2022-09-28T18:06:36.975Z,99030.56
2022-09-28T18:09:04.746Z,99028.94
2022-09-28T18:11:32.601Z,99018.56
2022-09-28T18:13:59.223Z,99030.41
2022-09-28T18:16:28.013Z,99029.97
2022-09-28T18:18:54.839Z,99020.84
2022-09-28T18:21:21.567Z,99037.44
2022-09-28T18:23:48.476Z,99031.09
2022-09-28T18:26:15.967Z,99038.97
2022-09-28T18:28:43.062Z,99036.59
2022-09-28T18:31:12.241Z,99044.50
2022-09-28T18:33:39.517Z,99048.44
2022-09-28T18:36:07.173Z,99049.25
2022-09-28T18:38:38.385Z,99049.16
2022-09-28T18:41:16.832Z,99053.50
2022-09-28T18:43:51.880Z,99045.50
2022-09-28T18:46:19.185Z,99063.38
2022-09-28T18:48:47.691Z,99061.03
2022-09-28T18:51:14.568Z,99068.13
2022-09-28T18:53:41.487Z,99057.66
2022-09-28T18:56:14.471Z,99071.25
2022-09-28T18:58:41.907Z,99064.09
2022-09-28T19:01:33.847Z,99068.84
2022-09-28T19:04:01.974Z,99063.22
2022-09-28T19:06:29.751Z,99067.97
2022-09-28T19:08:57.117Z,99069.50
2022-09-28T19:11:24.525Z,99067.91
2022-09-28T19:13:53.418Z,99074.16
2022-09-28T19:16:22.690Z,99072.97
2022-09-28T19:18:50.579Z,99074.16
2022-09-28T19:21:17.627Z,99068.63
2022-09-28T19:23:49.175Z,99078.09
2022-09-28T19:26:18.872Z,99075.63
2022-09-28T19:28:45.646Z,99073.28
2022-09-28T19:31:12.743Z,99070.88
2022-09-28T19:33:40.860Z,99070.69
2022-09-28T19:36:13.495Z,99072.06
2022-09-28T19:38:40.730Z,99074.31
2022-09-28T19:41:38.999Z,99081.03
2022-09-28T19:44:27.681Z,99073.13
2022-09-28T19:47:06.633Z,99065.22
2022-09-28T19:49:39.142Z,99070.84
2022-09-28T19:52:24.586Z,99072.59
2022-09-28T19:54:59.173Z,99078.66
2022-09-28T19:57:28.222Z,99079.84
2022-09-28T20:00:00.925Z,99077.56
2022-09-28T20:02:32.693Z,99079.97
2022-09-28T20:04:59.512Z,99079.09
2022-09-28T20:07:26.247Z,99078.38
2022-09-28T20:09:52.808Z,99087.56
2022-09-28T20:12:19.915Z,99092.78
2022-09-28T20:14:46.544Z,99087.28
2022-09-28T20:17:13.084Z,99086.81
2022-09-28T20:19:39.713Z,99079.28
2022-09-28T20:22:06.513Z,99086.47
2022-09-28T20:24:33.563Z,99090.41
2022-09-28T20:27:01.354Z,99084.94
2022-09-28T20:29:28.741Z,99081.84
2022-09-28T20:31:55.685Z,99078.97
2022-09-28T20:34:22.303Z,99078.31
2022-09-28T20:36:49.214Z,99079.94
2022-09-28T20:39:15.998Z,99080.72
2022-09-28T20:41:42.839Z,99070.84
2022-09-28T20:44:09.969Z,99079.44
2022-09-28T20:46:37.196Z,99080.59
2022-09-28T20:49:07.685Z,99083.44
2022-09-28T20:51:34.636Z,99087.16
2022-09-28T20:54:02.235Z,99087.16
2022-09-28T20:56:31.809Z,99089.50
2022-09-28T20:58:58.424Z,99095.41
2022-09-28T21:01:27.828Z,99085.50
2022-09-28T21:03:58.588Z,99097.78
2022-09-28T21:06:29.087Z,99089.06
2022-09-28T21:08:55.768Z,99091.47
2022-09-28T21:11:24.408Z,99089.56
2022-09-28T21:13:58.889Z,99084.75
2022-09-28T21:16:28.009Z,99082.75
2022-09-28T21:18:54.905Z,99089.84
2022-09-28T21:21:23.137Z,99093.84
2022-09-28T21:23:56.833Z,99091.47
2022-09-28T21:26:26.037Z,99090.81
2022-09-28T21:29:00.441Z,99100.69
2022-09-28T21:31:30.309Z,99094.25
2022-09-28T21:33:58.067Z,99092.34
2022-09-28T21:36:25.805Z,99089.06
2022-09-28T21:38:54.164Z,99090.66
2022-09-28T21:41:20.682Z,99098.34
2022-09-28T21:43:47.351Z,99097.78
2022-09-28T21:46:14.110Z,99096.16
2022-09-28T21:48:41.026Z,99091.47
2022-09-28T21:51:10.429Z,99098.94
2022-09-28T21:53:56.006Z,99103.34
2022-09-28T21:56:23.102Z,99099.41
2022-09-28T22:01:34.997Z,99099.25
2022-09-28T22:04:01.617Z,99095.91
2022-09-28T22:06:28.308Z,99100.63
2022-09-28T22:08:55.775Z,99102.09
2022-09-28T22:11:25.264Z,99102.81
2022-09-28T22:13:54.681Z,99103.47
2022-09-28T22:16:24.311Z,99105.03
2022-09-28T22:18:51.597Z,99104.09
2022-09-28T22:21:19.613Z,99101.22
2022-09-28T22:23:46.765Z,99107.53
2022-09-28T22:26:17.737Z,99109.50
2022-09-28T22:28:59.252Z,99114.97
2022-09-28T22:31:28.962Z,99115.28
2022-09-28T22:33:55.858Z,99114.84
2022-09-28T22:36:22.506Z,99118.78
2022-09-28T22:38:49.947Z,99121.13
2022-09-28T22:41:20.379Z,99122.63
2022-09-28T22:43:48.883Z,99125.34
2022-09-28T22:46:18.653Z,99129.25
2022-09-28T22:48:50.365Z,99132.03
2022-09-28T22:51:17.271Z,99126.50
2022-09-28T22:53:44.904Z,99129.22
2022-09-28T22:56:18.194Z,99128.75
2022-09-28T22:58:46.215Z,99123.13
2022-09-28T23:01:15.586Z,99121.53
2022-09-28T23:03:42.672Z,99126.28
2022-09-28T23:06:10.875Z,99127.81
2022-09-28T23:08:38.454Z,99122.97
2022-09-28T23:11:06.222Z,99122.16
2022-09-28T23:13:33.287Z,99119.38
2022-09-28T23:16:03.072Z,99129.25
2022-09-28T23:18:32.890Z,99114.47
2022-09-28T23:21:01.899Z,99122.38
2022-09-28T23:23:29.264Z,99123.53
2022-09-28T23:25:56.631Z,99121.94
2022-09-28T23:28:24.817Z,99123.53
2022-09-28T23:30:51.884Z,99122.28
2022-09-28T23:33:20.109Z,99121.03
2022-09-28T23:35:47.285Z,99122.22
2022-09-28T23:38:15.211Z,99117.03
2022-09-28T23:40:42.082Z,99119.00
2022-09-28T23:43:09.089Z,99118.56
2022-09-28T23:45:36.059Z,99116.94
2022-09-28T23:48:03.080Z,99110.94
2022-09-28T23:50:29.856Z,99115.69
2022-09-28T23:52:56.548Z,99117.66
2022-09-28T23:55:23.166Z,99115.59
2022-09-28T23:57:49.679Z,99114.03
